< < Back
Terminal Aerodrome Forecast


Current Version              Previous Versions:   1  2  3  4  5  6  7  8  9  

Terminal Aerodrome Forecast

026
FTUS42 KFFC 281120
TAFAHN
TAF
KAHN 281120Z 2812/2912 24005KT P6SM SKC
     FM281500 26010G15KT P6SM SCT030
     FM281800 24012G18KT P6SM VCSH BKN050
     FM282300 26010KT P6SM BKN250=

Latest METAR

265
SAUS70 KWBC 281400
MTRAHN
METAR KAHN 281351Z 27005KT 10SM CLR 28/22 A3003 RMK AO2 SLP161
T02830217


USA.gov is the U.S. government's official web portal to all federal, state and local government web resources and services.